Studley, Virginia
Current Conditions -  °F | °C
As of 10:54 PM on Thursday 27 Nov 2014 (Local Time) from KOFP Reporting Station
Few Clouds Few Clouds  
Wind Chill: 26°   Ceiling: Unl
Heat Index: 32°   Visibility: 10mi
Dew Point: 26°   Wind: 6mph
Humidity: 79%   Direction: 300°WNW
Pressure: 30.22"   Gusts: NA
Location:  37.68°N, 77.29°W
Report Text: KOFP 280354Z AUTO 30005KT 10SM FEW080 00/M03 A3022 RMK AO2 SLP233 T00001033
Loading
Personal Weather Stations






























Interactive Weather Map New forecast layout! Learn more

10-Day Weather Forecast

Advertisements
Track Severe Weather on mobile